Time;durP1;ratioP1;P1;durP2;ratioP2;P2;SDS_P1;SDS_P2;PMS_P1;PMS_P2;Temp;Humidity;BMP_temperature;BMP_pressure;BME280_temperature;BME280_humidity;BME280_pressure;Samples;Min_cycle;Max_cycle;Signal;HPM_P1;HPM_P2
2022/01/13 00:00:57;;;;;;;42.00;21.70;;;4.20;51.30;;;;;;6302644;28;20330;-57
2022/01/13 00:04:01;;;;;;;38.97;21.03;;;4.30;51.80;;;;;;6297919;28;20237;-58
2022/01/13 00:07:05;;;;;;;34.03;21.53;;;4.30;51.90;;;;;;6302760;28;20245;-56
2022/01/13 00:10:10;;;;;;;35.50;20.63;;;4.60;52.00;;;;;;6303166;28;20247;-56
2022/01/13 00:13:21;;;;;;;43.57;22.80;;;4.50;52.40;;;;;;6300267;28;20609;-56
2022/01/13 00:16:26;;;;;;;40.83;21.80;;;4.40;52.40;;;;;;6293906;28;20294;-57
2022/01/13 00:19:36;;;;;;;40.33;22.53;;;4.50;52.30;;;;;;6305212;28;20611;-55
2022/01/13 00:22:50;;;;;;;37.70;21.17;;;4.30;51.90;;;;;;6292710;28;20236;-57
2022/01/13 00:25:56;;;;;;;39.20;21.43;;;4.40;52.00;;;;;;6292870;28;20553;-56
2022/01/13 00:29:01;;;;;;;41.33;23.57;;;4.60;52.00;;;;;;6297981;28;20331;-56
2022/01/13 00:32:04;;;;;;;39.77;22.57;;;4.30;52.00;;;;;;6297080;28;20294;-57
2022/01/13 00:35:09;;;;;;;40.23;22.93;;;4.50;52.40;;;;;;6303449;28;20705;-57
2022/01/13 00:38:12;;;;;;;37.50;22.17;;;4.40;52.10;;;;;;6302741;28;20233;-57
2022/01/13 00:41:15;;;;;;;43.13;21.60;;;4.30;51.70;;;;;;6301048;28;20264;-56
2022/01/13 00:44:20;;;;;;;45.70;23.90;;;4.40;51.90;;;;;;6298665;28;20726;-57
2022/01/13 00:47:23;;;;;;;38.67;23.13;;;4.60;52.50;;;;;;6297650;28;20402;-55
2022/01/13 00:50:27;;;;;;;39.80;22.93;;;4.40;52.20;;;;;;6290266;28;20704;-55
2022/01/13 00:53:29;;;;;;;38.00;23.73;;;4.70;52.40;;;;;;6292864;28;20716;-56
2022/01/13 00:56:33;;;;;;;46.40;25.00;;;4.70;52.30;;;;;;6298346;28;20311;-56
2022/01/13 00:59:36;;;;;;;43.20;24.23;;;4.50;52.90;;;;;;6296132;28;20352;-57
2022/01/13 01:02:38;;;;;;;45.60;24.40;;;4.60;52.50;;;;;;6299738;28;20342;-58
2022/01/13 01:05:43;;;;;;;40.13;24.10;;;4.50;52.80;;;;;;6301647;28;20298;-56
2022/01/13 01:08:45;;;;;;;44.10;24.93;;;4.40;52.20;;;;;;6297028;28;20680;-56
2022/01/13 01:11:51;;;;;;;46.13;25.40;;;4.50;52.30;;;;;;6296355;28;20506;-58
2022/01/13 01:14:57;;;;;;;44.73;25.00;;;4.60;52.10;;;;;;6306144;28;20233;-57
2022/01/13 01:18:06;;;;;;;43.40;25.80;;;4.50;52.40;;;;;;6293518;28;20386;-58
2022/01/13 01:28:00;;;;;;;45.83;25.13;;;4.50;51.70;;;;;;6290512;28;20234;-56
2022/01/13 01:31:03;;;;;;;42.33;24.80;;;4.70;52.30;;;;;;6297176;28;20232;-55
2022/01/13 01:34:21;;;;;;;42.30;24.67;;;4.60;52.40;;;;;;6308745;28;20709;-55
2022/01/13 01:37:28;;;;;;;42.40;23.67;;;4.60;52.40;;;;;;6302975;28;20233;-56
2022/01/13 01:40:31;;;;;;;49.13;25.17;;;4.40;52.50;;;;;;6302496;28;20232;-56
2022/01/13 01:43:33;;;;;;;40.77;24.20;;;4.50;52.80;;;;;;6303825;28;20313;-55
2022/01/13 01:46:38;;;;;;;49.53;25.60;;;4.40;52.70;;;;;;6299479;28;20232;-56
2022/01/13 01:49:42;;;;;;;39.97;24.47;;;4.40;52.80;;;;;;6298561;28;20505;-56
2022/01/13 01:52:48;;;;;;;44.70;25.93;;;4.40;53.00;;;;;;6300413;28;20229;-57
2022/01/13 01:55:55;;;;;;;44.70;24.67;;;4.50;53.30;;;;;;6313818;28;20228;-56
2022/01/13 01:59:01;;;;;;;43.23;25.90;;;4.80;53.70;;;;;;6301633;28;20243;-56
2022/01/13 02:02:06;;;;;;;41.30;24.63;;;4.70;53.40;;;;;;6295303;28;20614;-57
2022/01/13 02:05:09;;;;;;;52.47;25.80;;;4.60;53.50;;;;;;6300702;28;20229;-57
2022/01/13 02:08:13;;;;;;;46.53;26.60;;;4.70;53.70;;;;;;6305489;28;20237;-57
2022/01/13 02:11:16;;;;;;;49.40;26.30;;;4.50;53.80;;;;;;6297902;28;20720;-57
2022/01/13 02:14:33;;;;;;;45.97;25.83;;;4.60;53.60;;;;;;6300429;28;20279;-57
2022/01/13 02:17:38;;;;;;;50.60;26.33;;;4.80;53.50;;;;;;6299566;28;20256;-56
2022/01/13 02:20:49;;;;;;;46.53;27.50;;;4.60;53.80;;;;;;6301781;28;20229;-56
2022/01/13 02:23:52;;;;;;;40.90;25.07;;;4.70;53.80;;;;;;6304984;28;20237;-56
2022/01/13 02:26:56;;;;;;;44.63;26.70;;;4.70;54.70;;;;;;6307080;28;20714;-58
2022/01/13 02:29:58;;;;;;;42.03;25.63;;;4.60;53.70;;;;;;6293458;28;20224;-57
2022/01/13 02:33:01;;;;;;;45.80;26.43;;;4.50;53.60;;;;;;6301390;28;20331;-57
2022/01/13 02:36:07;;;;;;;45.10;26.17;;;4.40;53.40;;;;;;6305893;28;20233;-57
2022/01/13 02:39:10;;;;;;;45.40;26.70;;;4.60;53.60;;;;;;6265793;28;20320;-55
2022/01/13 02:42:14;;;;;;;47.40;25.87;;;4.80;53.90;;;;;;6295288;28;20393;-57
2022/01/13 02:45:20;;;;;;;46.20;25.87;;;4.60;53.80;;;;;;6303451;28;20238;-57
2022/01/13 02:48:30;;;;;;;48.73;26.37;;;4.70;54.50;;;;;;6291496;28;20705;-58
2022/01/13 02:51:34;;;;;;;46.80;26.33;;;4.70;53.70;;;;;;6294400;28;20394;-57
2022/01/13 02:54:37;;;;;;;44.20;26.27;;;4.50;54.00;;;;;;6299777;28;20260;-56
2022/01/13 02:57:39;;;;;;;52.03;27.17;;;4.70;54.10;;;;;;6299792;28;20232;-57
2022/01/13 03:00:44;;;;;;;40.63;25.47;;;4.60;53.50;;;;;;6295123;28;20238;-57
2022/01/13 03:03:47;;;;;;;58.10;28.37;;;4.60;54.00;;;;;;6299766;28;20244;-57
2022/01/13 03:06:51;;;;;;;55.77;27.57;;;4.70;54.60;;;;;;6293604;28;20664;-57
2022/01/13 03:09:54;;;;;;;50.57;28.70;;;4.50;54.50;;;;;;6285787;28;20308;-57
2022/01/13 03:12:58;;;;;;;52.70;28.17;;;4.50;54.60;;;;;;6292947;28;20321;-56
2022/01/13 03:16:07;;;;;;;49.03;28.57;;;4.60;55.30;;;;;;6297447;28;20247;-55
2022/01/13 03:19:11;;;;;;;49.13;27.23;;;4.60;55.50;;;;;;6300654;28;20229;-56
2022/01/13 03:22:15;;;;;;;53.47;28.30;;;4.50;55.90;;;;;;6296178;28;20968;-55
2022/01/13 03:25:22;;;;;;;51.53;28.60;;;4.50;55.20;;;;;;6301298;28;20237;-57
2022/01/13 03:28:30;;;;;;;45.00;27.80;;;4.80;55.90;;;;;;6295714;28;20239;-55
2022/01/13 03:31:33;;;;;;;57.67;28.33;;;4.40;55.70;;;;;;6296715;28;20245;-56
2022/01/13 03:34:36;;;;;;;47.37;27.53;;;4.40;55.90;;;;;;6300368;28;20240;-56
2022/01/13 03:37:40;;;;;;;54.70;27.20;;;4.50;56.20;;;;;;6297100;28;20510;-56
2022/01/13 03:40:43;;;;;;;51.10;28.67;;;4.60;56.70;;;;;;6289818;28;20252;-56
2022/01/13 03:43:46;;;;;;;58.83;29.23;;;4.20;56.00;;;;;;6295836;28;20247;-56
2022/01/13 03:46:49;;;;;;;49.53;27.70;;;4.50;56.40;;;;;;6298326;28;20764;-57
2022/01/13 03:49:51;;;;;;;45.43;26.47;;;4.50;56.30;;;;;;6294145;28;20248;-57
2022/01/13 03:53:33;;;;;;;51.53;28.10;;;4.50;57.10;;;;;;6294725;28;20383;-58
2022/01/13 03:57:10;;;;;;;46.83;26.83;;;4.40;57.20;;;;;;6298179;28;20220;-57
2022/01/13 04:01:01;;;;;;;51.60;28.70;;;4.70;57.10;;;;;;6293082;28;20309;-56
2022/01/13 04:04:04;;;;;;;47.43;27.13;;;4.50;57.00;;;;;;6294638;28;20232;-56
2022/01/13 04:07:15;;;;;;;51.30;27.30;;;4.60;56.40;;;;;;6292942;28;20293;-57
2022/01/13 04:10:55;;;;;;;49.40;27.53;;;4.70;56.60;;;;;;6296917;28;20262;-55
2022/01/13 04:14:01;;;;;;;49.87;28.33;;;4.50;57.00;;;;;;6297062;28;20612;-56
2022/01/13 04:17:06;;;;;;;53.50;29.10;;;4.30;56.40;;;;;;6293644;28;20278;-56
2022/01/13 04:20:10;;;;;;;48.43;28.10;;;4.60;57.00;;;;;;6305251;28;20638;-58
2022/01/13 04:23:13;;;;;;;55.50;29.57;;;4.50;57.10;;;;;;6301479;28;20245;-56
2022/01/13 04:26:18;;;;;;;47.27;27.37;;;4.60;57.30;;;;;;6299372;28;20934;-56
2022/01/13 04:29:30;;;;;;;55.20;28.90;;;4.50;57.00;;;;;;6301329;28;20240;-57
2022/01/13 04:32:34;;;;;;;50.40;30.90;;;4.30;57.00;;;;;;6284394;28;20607;-56
2022/01/13 04:35:36;;;;;;;58.67;30.90;;;4.40;57.30;;;;;;6297249;28;20228;-56
2022/01/13 04:38:39;;;;;;;56.60;29.83;;;4.40;57.70;;;;;;6295840;28;20782;-57
2022/01/13 04:41:44;;;;;;;56.43;30.50;;;4.40;57.90;;;;;;6292126;28;20232;-58
2022/01/13 04:44:47;;;;;;;56.20;30.83;;;4.30;57.90;;;;;;6299274;28;20229;-56
2022/01/13 04:47:53;;;;;;;64.23;31.23;;;4.50;58.00;;;;;;6289853;28;20324;-56
2022/01/13 04:50:55;;;;;;;60.00;31.43;;;4.10;58.20;;;;;;6298255;28;20519;-56
2022/01/13 04:53:58;;;;;;;62.70;31.37;;;4.20;57.90;;;;;;6292378;28;20332;-57
2022/01/13 04:57:08;;;;;;;64.43;31.13;;;4.30;57.90;;;;;;6294500;28;20324;-57
2022/01/13 05:00:11;;;;;;;62.30;30.13;;;4.20;57.90;;;;;;6298538;28;20239;-56
2022/01/13 05:03:17;;;;;;;58.17;32.20;;;4.20;58.10;;;;;;6294069;28;20249;-57
2022/01/13 05:06:19;;;;;;;59.07;31.17;;;4.50;58.10;;;;;;6301012;28;20232;-57
2022/01/13 05:09:22;;;;;;;58.33;30.97;;;4.10;57.80;;;;;;6298069;28;20330;-57
2022/01/13 05:12:31;;;;;;;66.33;32.73;;;4.30;57.90;;;;;;6266024;28;20233;-58
2022/01/13 05:15:35;;;;;;;62.50;30.20;;;4.20;57.70;;;;;;6297382;28;20311;-55
2022/01/13 05:18:47;;;;;;;58.10;30.10;;;4.20;57.80;;;;;;6301136;28;20361;-55
2022/01/13 05:22:15;;;;;;;62.97;30.27;;;4.10;57.70;;;;;;6303145;28;20378;-57
2022/01/13 05:25:18;;;;;;;61.07;32.27;;;4.50;58.20;;;;;;6302233;28;20362;-56
2022/01/13 05:28:21;;;;;;;68.70;30.40;;;4.50;59.10;;;;;;6293211;28;20630;-56
2022/01/13 05:31:24;;;;;;;64.03;31.67;;;4.10;57.70;;;;;;6302651;28;20317;-56
2022/01/13 05:34:28;;;;;;;60.37;31.63;;;4.10;57.80;;;;;;6293446;28;20231;-56
2022/01/13 05:37:46;;;;;;;63.93;31.80;;;4.40;58.00;;;;;;6303118;28;20327;-57
2022/01/13 05:40:54;;;;;;;58.07;29.73;;;4.10;57.80;;;;;;6298089;28;20241;-56
2022/01/13 05:43:57;;;;;;;62.63;31.67;;;4.40;58.00;;;;;;6293805;28;20233;-56
2022/01/13 05:47:00;;;;;;;68.63;30.93;;;4.40;57.90;;;;;;6292460;28;20640;-56
2022/01/13 05:50:04;;;;;;;58.17;30.60;;;4.40;58.00;;;;;;6293761;28;20241;-56
2022/01/13 05:53:07;;;;;;;73.07;32.33;;;4.40;58.00;;;;;;6300590;28;20240;-56
2022/01/13 05:56:10;;;;;;;63.87;30.37;;;4.20;57.70;;;;;;6295521;28;20807;-56
2022/01/13 05:59:13;;;;;;;67.63;29.17;;;3.90;57.60;;;;;;6291178;28;20232;-55
2022/01/13 06:02:15;;;;;;;69.27;30.13;;;4.30;57.90;;;;;;6292252;28;20339;-56
2022/01/13 06:05:21;;;;;;;57.10;29.30;;;4.30;58.00;;;;;;6299438;28;20403;-56
2022/01/13 06:08:23;;;;;;;61.43;30.63;;;4.40;58.00;;;;;;6294108;28;20731;-56
2022/01/13 06:11:36;;;;;;;58.60;29.67;;;4.00;57.90;;;;;;6303547;28;20862;-57
2022/01/13 06:14:39;;;;;;;63.77;29.23;;;4.20;58.10;;;;;;6272063;28;20719;-58
2022/01/13 06:17:43;;;;;;;50.27;28.80;;;4.10;58.60;;;;;;6271753;28;20323;-56
2022/01/13 06:20:47;;;;;;;57.23;29.13;;;4.10;59.00;;;;;;6301469;28;20385;-56
2022/01/13 06:23:50;;;;;;;54.77;27.83;;;4.30;58.30;;;;;;6297928;28;20278;-56
2022/01/13 06:26:52;;;;;;;54.67;29.17;;;4.30;58.20;;;;;;6297416;28;20239;-56
2022/01/13 06:29:55;;;;;;;57.60;28.57;;;4.20;58.20;;;;;;6293073;28;20871;-56
2022/01/13 06:32:58;;;;;;;58.57;29.10;;;4.00;59.00;;;;;;6296996;28;20378;-58
2022/01/13 06:36:03;;;;;;;56.10;28.67;;;4.30;58.10;;;;;;6296828;28;20228;-58
2022/01/13 06:39:06;;;;;;;59.60;29.13;;;4.30;58.30;;;;;;6296946;28;20229;-57
2022/01/13 06:42:09;;;;;;;58.93;29.17;;;4.30;58.10;;;;;;6295826;28;20262;-56
2022/01/13 06:45:13;;;;;;;58.67;28.30;;;4.50;58.60;;;;;;6289397;28;20237;-58
2022/01/13 06:48:16;;;;;;;56.23;28.47;;;4.30;58.30;;;;;;6288118;28;20720;-57
2022/01/13 06:51:20;;;;;;;53.90;27.53;;;4.50;58.50;;;;;;6296332;28;20232;-58
2022/01/13 06:54:23;;;;;;;54.77;26.47;;;4.40;58.20;;;;;;6290984;28;20285;-56
2022/01/13 06:57:26;;;;;;;63.17;29.87;;;4.40;58.50;;;;;;6299879;28;20314;-58
2022/01/13 07:00:28;;;;;;;58.30;28.70;;;4.40;58.90;;;;;;6302738;28;20236;-57
2022/01/13 07:03:31;;;;;;;55.53;29.30;;;4.10;58.30;;;;;;6286412;28;20256;-58
2022/01/13 07:06:35;;;;;;;57.57;28.20;;;4.40;58.30;;;;;;6292994;28;20235;-56
2022/01/13 07:09:38;;;;;;;56.50;28.37;;;4.40;58.50;;;;;;6296165;28;20331;-56
2022/01/13 07:12:42;;;;;;;59.27;28.27;;;4.20;58.20;;;;;;6286275;28;20255;-59
2022/01/13 07:15:46;;;;;;;57.00;29.37;;;4.20;58.20;;;;;;6290555;28;20709;-57
2022/01/13 07:18:49;;;;;;;64.73;29.23;;;4.20;58.30;;;;;;6297524;28;20366;-57
2022/01/13 07:21:54;;;;;;;66.63;30.10;;;4.20;58.40;;;;;;6296033;28;20376;-57
2022/01/13 07:24:57;;;;;;;57.47;29.67;;;3.80;57.80;;;;;;6291766;28;20392;-57
2022/01/13 07:28:00;;;;;;;58.97;28.33;;;4.40;58.50;;;;;;6295232;28;20285;-57
2022/01/13 07:31:03;;;;;;;64.70;30.70;;;4.30;58.50;;;;;;6301334;28;20748;-56
2022/01/13 07:34:06;;;;;;;68.07;31.23;;;4.30;58.50;;;;;;6303968;28;20241;-55
2022/01/13 07:37:10;;;;;;;55.63;29.00;;;4.40;58.50;;;;;;6298601;28;20294;-57
2022/01/13 07:40:15;;;;;;;64.03;31.73;;;4.30;58.50;;;;;;6288550;28;20353;-56
2022/01/13 07:43:22;;;;;;;66.93;30.17;;;4.40;59.50;;;;;;6291514;28;20693;-56
2022/01/13 07:46:25;;;;;;;59.33;30.50;;;4.30;58.70;;;;;;6283593;28;20237;-56
2022/01/13 07:49:28;;;;;;;61.97;29.90;;;4.30;58.20;;;;;;6289048;28;20237;-57
2022/01/13 07:52:32;;;;;;;65.40;29.77;;;4.40;58.30;;;;;;6291578;28;20244;-56
2022/01/13 07:55:35;;;;;;;65.73;29.97;;;4.30;58.20;;;;;;6294095;28;20258;-56
2022/01/13 07:58:40;;;;;;;66.30;30.80;;;4.30;58.20;;;;;;6284878;28;20225;-56
2022/01/13 08:01:43;;;;;;;62.87;29.47;;;4.40;58.40;;;;;;6295107;28;20346;-57
2022/01/13 08:04:46;;;;;;;72.57;30.23;;;4.00;58.20;;;;;;6295428;28;20236;-57
2022/01/13 08:07:50;;;;;;;63.43;29.10;;;4.40;58.60;;;;;;6290043;28;20241;-56
2022/01/13 08:10:53;;;;;;;61.43;29.40;;;4.50;58.70;;;;;;6301279;28;20776;-57
2022/01/13 08:13:56;;;;;;;59.77;30.03;;;4.50;58.60;;;;;;6290469;28;20314;-56
2022/01/13 08:17:00;;;;;;;63.73;30.63;;;4.40;59.50;;;;;;6305049;28;20265;-57
2022/01/13 08:20:03;;;;;;;60.23;29.20;;;4.30;58.60;;;;;;6295004;28;20393;-57
2022/01/13 08:23:09;;;;;;;73.10;30.50;;;4.30;58.50;;;;;;6295494;28;20316;-57
2022/01/13 08:26:12;;;;;;;59.83;28.73;;;4.30;58.50;;;;;;6297312;28;20782;-58
2022/01/13 08:29:15;;;;;;;63.93;28.83;;;4.40;58.80;;;;;;6294356;28;20301;-56
2022/01/13 08:32:18;;;;;;;56.27;27.70;;;4.30;58.60;;;;;;6287120;28;20840;-57
2022/01/13 08:35:22;;;;;;;55.90;27.93;;;4.50;58.70;;;;;;6294130;28;20225;-57
2022/01/13 08:38:26;;;;;;;58.17;26.53;;;4.40;58.90;;;;;;6289627;28;20321;-57
2022/01/13 08:41:29;;;;;;;59.17;27.57;;;4.50;58.70;;;;;;6300238;28;20373;-57
2022/01/13 08:44:31;;;;;;;61.30;27.17;;;4.40;58.60;;;;;;6294104;28;20717;-58
2022/01/13 08:47:35;;;;;;;59.27;28.47;;;4.50;58.60;;;;;;6295208;28;20705;-57
2022/01/13 08:50:37;;;;;;;55.17;27.87;;;4.20;58.70;;;;;;6300710;28;20248;-54
2022/01/13 08:53:41;;;;;;;57.53;27.40;;;4.60;58.70;;;;;;6297617;28;20332;-55
2022/01/13 08:56:45;;;;;;;60.20;27.47;;;4.40;58.70;;;;;;6299034;28;20257;-58
2022/01/13 08:59:48;;;;;;;62.93;28.23;;;4.50;58.70;;;;;;6300357;28;20237;-56
2022/01/13 09:02:51;;;;;;;59.73;27.73;;;4.50;58.70;;;;;;6298799;28;20236;-56
2022/01/13 09:05:54;;;;;;;57.87;27.43;;;4.50;58.90;;;;;;6310236;28;20239;-58
2022/01/13 09:08:58;;;;;;;58.73;27.37;;;4.50;58.60;;;;;;6300024;28;20681;-58
2022/01/13 09:12:02;;;;;;;54.37;27.47;;;4.50;58.90;;;;;;6301562;28;20781;-57
2022/01/13 09:15:16;;;;;;;54.10;27.53;;;4.30;58.50;;;;;;6300097;28;20241;-56
2022/01/13 09:18:31;;;;;;;58.27;27.33;;;4.60;59.60;;;;;;6292251;28;20228;-55
2022/01/13 09:21:40;;;;;;;57.70;26.63;;;4.30;58.90;;;;;;6297207;28;20503;-58
2022/01/13 09:24:44;;;;;;;58.47;26.03;;;4.40;58.40;;;;;;6291708;28;20365;-56
2022/01/13 09:27:47;;;;;;;53.47;25.90;;;4.60;58.80;;;;;;6292975;28;20233;-57
2022/01/13 09:30:50;;;;;;;57.93;25.97;;;4.60;58.30;;;;;;6286237;28;20626;-56
2022/01/13 09:33:53;;;;;;;55.20;26.43;;;4.70;58.40;;;;;;6288804;28;20658;-57
2022/01/13 09:36:55;;;;;;;55.97;26.30;;;4.80;59.70;;;;;;6301444;28;20286;-56
2022/01/13 09:40:00;;;;;;;51.07;26.00;;;4.60;58.40;;;;;;6293116;28;20599;-56
2022/01/13 09:43:05;;;;;;;53.07;27.13;;;4.60;58.50;;;;;;6290234;28;20317;-57
2022/01/13 09:46:08;;;;;;;56.53;26.03;;;4.60;59.20;;;;;;6295441;28;20369;-55
2022/01/13 09:49:10;;;;;;;57.50;25.77;;;4.70;58.30;;;;;;6306726;28;20236;-56
2022/01/13 09:52:13;;;;;;;50.07;26.10;;;4.80;58.50;;;;;;6307330;28;20232;-56
2022/01/13 09:55:19;;;;;;;54.23;26.77;;;4.60;58.10;;;;;;6291847;28;20233;-57
2022/01/13 09:58:21;;;;;;;56.00;25.30;;;4.70;58.20;;;;;;6297378;28;20355;-56
2022/01/13 10:01:24;;;;;;;50.00;26.07;;;4.50;58.20;;;;;;6286870;28;20732;-56
2022/01/13 10:04:46;;;;;;;61.37;27.07;;;4.60;58.90;;;;;;6284223;28;20795;-56
2022/01/13 10:07:51;;;;;;;55.20;25.80;;;4.90;58.30;;;;;;6295161;28;20241;-56
2022/01/13 10:11:02;;;;;;;51.73;25.20;;;4.80;58.30;;;;;;6301704;28;20244;-57
2022/01/13 10:14:11;;;;;;;53.97;26.80;;;4.50;58.10;;;;;;6292531;28;20271;-56
2022/01/13 10:17:16;;;;;;;62.57;28.93;;;4.60;58.30;;;;;;6301295;28;20328;-56
2022/01/13 10:20:21;;;;;;;59.33;26.97;;;4.50;58.70;;;;;;6295378;28;20241;-57
2022/01/13 10:23:24;;;;;;;56.83;27.33;;;4.60;58.20;;;;;;6301672;28;20294;-57
2022/01/13 10:26:30;;;;;;;53.07;26.30;;;4.60;58.20;;;;;;6303138;28;20281;-57
2022/01/13 10:29:38;;;;;;;56.40;26.23;;;4.60;58.60;;;;;;6296308;28;20225;-56
2022/01/13 10:32:42;;;;;;;55.83;27.60;;;4.60;58.90;;;;;;6296984;28;20497;-56
2022/01/13 10:35:45;;;;;;;59.53;26.23;;;4.70;58.30;;;;;;6304931;28;20795;-58
2022/01/13 10:38:53;;;;;;;53.13;25.17;;;4.70;58.40;;;;;;6306133;28;20259;-56
2022/01/13 10:42:14;;;;;;;55.10;25.93;;;4.60;58.50;;;;;;6296982;28;20712;-58
2022/01/13 10:45:20;;;;;;;59.60;26.13;;;4.70;58.30;;;;;;6290289;28;20680;-56
2022/01/13 10:48:24;;;;;;;51.20;24.63;;;4.70;58.20;;;;;;6297981;28;20231;-58
2022/01/13 10:51:27;;;;;;;49.57;23.47;;;4.60;58.10;;;;;;6296386;28;20649;-57
2022/01/13 10:54:30;;;;;;;48.00;23.73;;;4.80;58.30;;;;;;6289003;28;20243;-57
2022/01/13 10:57:35;;;;;;;48.93;24.33;;;4.60;58.10;;;;;;6301022;28;20316;-57
2022/01/13 11:00:38;;;;;;;50.13;23.83;;;4.50;58.50;;;;;;6285048;28;20708;-57
2022/01/13 11:03:43;;;;;;;45.80;23.37;;;4.50;58.10;;;;;;6289607;28;20427;-58
2022/01/13 11:06:46;;;;;;;45.17;22.10;;;4.60;58.10;;;;;;6290063;28;20274;-56
2022/01/13 11:09:53;;;;;;;45.80;21.93;;;4.60;58.10;;;;;;6302482;28;20319;-56
2022/01/13 11:12:59;;;;;;;44.17;22.30;;;4.70;58.30;;;;;;6303010;28;20245;-56
2022/01/13 11:16:02;;;;;;;51.60;23.80;;;4.80;58.40;;;;;;6303481;28;20239;-56
2022/01/13 11:19:06;;;;;;;45.00;22.40;;;4.80;58.50;;;;;;6296740;28;20232;-57
2022/01/13 11:22:10;;;;;;;49.93;22.67;;;4.80;58.10;;;;;;6293385;28;20545;-58
2022/01/13 11:25:14;;;;;;;45.90;22.70;;;4.80;58.30;;;;;;6302559;28;20233;-56
2022/01/13 11:28:19;;;;;;;48.63;23.83;;;4.80;58.50;;;;;;6290625;28;20304;-56
2022/01/13 11:31:22;;;;;;;57.07;25.83;;;4.80;58.30;;;;;;6297873;28;20727;-56
2022/01/13 11:34:25;;;;;;;43.23;22.33;;;4.70;58.20;;;;;;6296002;28;20236;-56
2022/01/13 11:37:29;;;;;;;44.40;21.93;;;4.70;58.20;;;;;;6306771;28;20317;-57
2022/01/13 11:40:37;;;;;;;44.37;22.70;;;4.80;58.30;;;;;;6306251;28;20323;-56
2022/01/13 11:43:42;;;;;;;41.37;21.57;;;4.80;58.20;;;;;;6289823;28;20459;-58
2022/01/13 11:46:47;;;;;;;52.93;22.70;;;4.60;57.50;;;;;;6294089;28;20233;-57
2022/01/13 11:49:59;;;;;;;39.10;21.23;;;4.90;58.00;;;;;;6297602;28;20233;-56
2022/01/13 11:53:01;;;;;;;40.87;20.03;;;4.90;57.70;;;;;;6291698;28;20221;-57
2022/01/13 11:56:07;;;;;;;38.27;20.17;;;4.80;57.20;;;;;;6292075;28;20437;-56
2022/01/13 11:59:20;;;;;;;38.53;20.73;;;5.00;57.40;;;;;;6295599;28;20677;-57
2022/01/13 12:02:24;;;;;;;41.80;20.63;;;4.60;57.20;;;;;;6292677;28;20276;-58
2022/01/13 12:05:40;;;;;;;42.07;20.87;;;4.80;57.20;;;;;;6295746;28;20236;-57
2022/01/13 12:08:45;;;;;;;35.17;19.53;;;4.90;57.50;;;;;;6290044;28;20241;-58
2022/01/13 12:11:53;;;;;;;36.50;19.67;;;5.00;56.60;;;;;;6300263;28;20369;-56
2022/01/13 12:15:15;;;;;;;41.97;21.03;;;4.90;56.70;;;;;;6293457;28;20304;-55
2022/01/13 12:18:53;;;;;;;36.73;19.27;;;5.00;56.80;;;;;;6293092;28;20562;-57
2022/01/13 12:22:03;;;;;;;38.67;18.77;;;4.90;56.80;;;;;;6291375;28;20233;-56
2022/01/13 12:25:08;;;;;;;38.20;19.30;;;5.10;56.30;;;;;;6299679;28;20315;-56
2022/01/13 12:28:16;;;;;;;35.53;20.63;;;4.90;56.00;;;;;;6299838;28;20228;-56
2022/01/13 12:31:29;;;;;;;34.23;19.27;;;4.90;55.80;;;;;;6299934;28;20236;-57
2022/01/13 12:34:50;;;;;;;34.63;19.17;;;5.10;55.80;;;;;;6302104;28;20303;-57
2022/01/13 12:38:00;;;;;;;38.33;19.37;;;5.20;55.90;;;;;;6295443;28;20849;-57
2022/01/13 12:41:13;;;;;;;38.13;19.90;;;5.20;55.90;;;;;;6294313;28;20752;-56
2022/01/13 12:45:27;;;;;;;34.17;18.67;;;5.10;54.80;;;;;;6297117;28;20798;-57
2022/01/13 12:47:44;;;;;;;38.03;19.80;;;5.40;55.10;;;;;;6294545;28;20497;-57
2022/01/13 12:50:48;;;;;;;34.30;18.83;;;5.10;55.00;;;;;;6298341;28;20585;-56
2022/01/13 12:53:51;;;;;;;32.67;19.70;;;5.00;54.70;;;;;;6293993;28;20305;-57
2022/01/13 12:56:54;;;;;;;33.87;19.13;;;5.10;54.70;;;;;;6295828;28;20646;-57
2022/01/13 12:59:57;;;;;;;32.13;18.30;;;5.00;54.50;;;;;;6296714;28;20917;-57
2022/01/13 13:03:07;;;;;;;33.53;19.33;;;5.00;54.10;;;;;;6298792;28;20854;-57
2022/01/13 13:06:11;;;;;;;34.07;18.77;;;5.20;53.90;;;;;;6299743;28;20233;-56
2022/01/13 13:09:15;;;;;;;33.23;18.13;;;5.20;53.70;;;;;;6302144;28;20513;-57
2022/01/13 13:12:25;;;;;;;36.67;18.40;;;5.20;53.20;;;;;;6304506;28;20382;-57
2022/01/13 13:15:41;;;;;;;37.43;18.70;;;5.40;53.60;;;;;;6296115;28;20229;-56
2022/01/13 13:18:48;;;;;;;30.93;17.93;;;5.20;52.80;;;;;;6300756;28;20240;-57
2022/01/13 13:21:52;;;;;;;35.03;18.10;;;5.20;52.70;;;;;;6295265;28;20378;-56
2022/01/13 13:24:55;;;;;;;33.37;18.67;;;5.30;52.70;;;;;;6298740;28;20267;-56
2022/01/13 13:28:16;;;;;;;28.63;18.03;;;5.50;52.50;;;;;;6303142;28;20693;-56
2022/01/13 13:31:20;;;;;;;28.83;18.47;;;5.30;53.50;;;;;;6304614;28;20229;-57
2022/01/13 13:34:32;;;;;;;34.13;18.43;;;5.30;52.80;;;;;;6300240;28;20245;-56
2022/01/13 13:37:44;;;;;;;30.27;18.13;;;5.40;52.20;;;;;;6300193;28;20244;-57
2022/01/13 13:40:47;;;;;;;29.77;18.70;;;5.30;51.60;;;;;;6298860;28;20232;-57
2022/01/13 13:43:51;;;;;;;29.10;17.77;;;5.10;51.90;;;;;;6292930;28;20392;-57
2022/01/13 13:46:56;;;;;;;32.47;18.43;;;5.50;51.90;;;;;;6298206;28;20233;-56
2022/01/13 13:50:03;;;;;;;29.83;18.50;;;5.20;51.40;;;;;;6302825;28;20744;-58
2022/01/13 13:53:08;;;;;;;27.60;16.87;;;5.40;50.90;;;;;;6299821;28;20255;-58
2022/01/13 13:56:11;;;;;;;30.43;18.00;;;5.30;50.90;;;;;;6300670;28;20267;-56
2022/01/13 13:59:19;;;;;;;27.63;17.37;;;5.30;49.70;;;;;;6300311;28;20877;-56
2022/01/13 14:02:29;;;;;;;24.87;15.83;;;5.30;50.80;;;;;;6297074;28;20442;-57
2022/01/13 14:05:39;;;;;;;29.17;17.43;;;5.60;50.00;;;;;;6300681;28;20813;-57
2022/01/13 14:08:52;;;;;;;29.57;17.37;;;5.50;49.60;;;;;;6298560;28;20225;-57
2022/01/13 14:11:56;;;;;;;27.07;16.67;;;5.70;49.70;;;;;;6296821;28;20314;-57
2022/01/13 14:15:11;;;;;;;28.53;17.63;;;5.30;48.50;;;;;;6301852;28;20628;-57
2022/01/13 14:18:18;;;;;;;32.37;17.60;;;5.40;48.40;;;;;;6295831;28;20372;-54
2022/01/13 14:21:22;;;;;;;28.97;17.07;;;5.40;48.30;;;;;;6299962;28;20302;-58
2022/01/13 14:24:30;;;;;;;26.23;16.73;;;5.40;48.00;;;;;;6297686;28;20256;-57
2022/01/13 14:27:34;;;;;;;27.23;17.30;;;5.30;48.10;;;;;;6294282;28;20228;-58
2022/01/13 14:30:40;;;;;;;26.70;16.83;;;5.60;48.30;;;;;;6299564;28;20487;-57
2022/01/13 14:33:44;;;;;;;24.37;16.70;;;5.40;47.70;;;;;;6301614;28;20327;-57
2022/01/13 14:36:48;;;;;;;31.80;17.57;;;5.50;48.20;;;;;;6292689;28;20241;-59
2022/01/13 14:40:09;;;;;;;30.50;18.13;;;5.30;48.20;;;;;;6300710;28;20256;-57
2022/01/13 14:43:18;;;;;;;26.90;16.40;;;5.30;47.70;;;;;;6303742;28;20424;-56
2022/01/13 14:46:21;;;;;;;27.37;17.10;;;5.40;47.70;;;;;;6294000;28;20603;-58
2022/01/13 14:49:28;;;;;;;26.43;16.20;;;5.40;47.30;;;;;;6300590;28;20324;-56
2022/01/13 14:52:32;;;;;;;26.30;15.73;;;5.20;47.80;;;;;;6300191;28;20472;-56
2022/01/13 14:55:35;;;;;;;30.67;16.90;;;5.40;47.50;;;;;;6293189;28;20363;-58
2022/01/13 14:58:38;;;;;;;21.93;15.87;;;5.20;48.00;;;;;;6299709;28;20338;-57
2022/01/13 15:01:43;;;;;;;26.10;17.50;;;5.20;47.30;;;;;;6297962;28;20247;-57
2022/01/13 15:04:46;;;;;;;28.80;15.63;;;5.30;47.50;;;;;;6295054;28;20245;-57
2022/01/13 15:07:51;;;;;;;27.50;17.73;;;5.60;48.10;;;;;;6294503;28;20237;-55
2022/01/13 15:10:54;;;;;;;29.23;16.67;;;5.60;47.90;;;;;;6286048;28;20241;-56
2022/01/13 15:13:57;;;;;;;23.93;15.63;;;5.30;48.10;;;;;;6291902;28;20241;-57
2022/01/13 15:16:59;;;;;;;28.03;17.17;;;5.10;48.50;;;;;;6285094;28;20335;-56
2022/01/13 15:20:02;;;;;;;26.50;16.17;;;5.30;48.50;;;;;;6302594;28;20264;-57
2022/01/13 15:23:08;;;;;;;27.87;17.17;;;5.30;48.50;;;;;;6296392;28;20257;-57
2022/01/13 15:26:11;;;;;;;29.23;16.43;;;5.40;48.30;;;;;;6297505;28;20374;-55
2022/01/13 15:29:14;;;;;;;26.20;16.37;;;5.30;48.60;;;;;;6294814;28;20252;-57
2022/01/13 15:32:16;;;;;;;28.90;16.50;;;5.40;48.10;;;;;;6305146;28;20294;-56
2022/01/13 15:35:19;;;;;;;24.57;15.53;;;5.50;48.70;;;;;;6307220;28;20745;-57
2022/01/13 15:38:28;;;;;;;23.00;16.93;;;5.50;48.90;;;;;;6303410;28;20442;-57
2022/01/13 15:41:32;;;;;;;27.57;16.83;;;5.10;48.70;;;;;;6296145;28;20669;-57
2022/01/13 15:44:35;;;;;;;23.60;15.97;;;5.40;48.80;;;;;;6296216;28;20311;-56
2022/01/13 15:47:39;;;;;;;25.83;16.30;;;5.30;49.20;;;;;;6301042;28;20228;-56
2022/01/13 15:50:42;;;;;;;25.77;16.80;;;5.30;49.20;;;;;;6304267;28;20313;-58
2022/01/13 15:53:48;;;;;;;28.63;16.47;;;5.30;49.70;;;;;;6297830;28;20237;-57
2022/01/13 15:56:51;;;;;;;26.43;16.57;;;5.40;49.40;;;;;;6306537;28;20420;-57
2022/01/13 15:59:54;;;;;;;24.90;15.67;;;5.20;49.20;;;;;;6303937;28;20389;-56